sensor_id;sensor_type;location;lat;lon;timestamp;temperature;humidity
75164;HTU21D;63746;45.402;37.922;2024-02-23T00:01:30;2.80;71.76
75164;HTU21D;63746;45.402;37.922;2024-02-23T00:03:56;2.74;71.61
75164;HTU21D;63746;45.402;37.922;2024-02-23T00:06:22;2.69;71.59
75164;HTU21D;63746;45.402;37.922;2024-02-23T00:08:53;2.66;71.63
75164;HTU21D;63746;45.402;37.922;2024-02-23T00:11:21;2.62;71.75
75164;HTU21D;63746;45.402;37.922;2024-02-23T00:13:47;2.59;71.71
75164;HTU21D;63746;45.402;37.922;2024-02-23T00:16:13;2.54;71.71
75164;HTU21D;63746;45.402;37.922;2024-02-23T00:18:39;2.53;71.77
75164;HTU21D;63746;45.402;37.922;2024-02-23T00:21:05;2.50;71.78
75164;HTU21D;63746;45.402;37.922;2024-02-23T00:23:31;2.45;71.77
75164;HTU21D;63746;45.402;37.922;2024-02-23T00:25:57;2.43;71.77
75164;HTU21D;63746;45.402;37.922;2024-02-23T00:28:23;2.39;71.80
75164;HTU21D;63746;45.402;37.922;2024-02-23T00:30:49;2.37;71.87
75164;HTU21D;63746;45.402;37.922;2024-02-23T00:33:15;2.35;71.89
75164;HTU21D;63746;45.402;37.922;2024-02-23T00:35:40;2.31;71.90
75164;HTU21D;63746;45.402;37.922;2024-02-23T00:38:06;2.30;71.96
75164;HTU21D;63746;45.402;37.922;2024-02-23T00:40:33;2.28;71.97
75164;HTU21D;63746;45.402;37.922;2024-02-23T00:42:59;2.27;72.05
75164;HTU21D;63746;45.402;37.922;2024-02-23T00:45:26;2.27;72.06
75164;HTU21D;63746;45.402;37.922;2024-02-23T00:47:52;2.26;72.08
75164;HTU21D;63746;45.402;37.922;2024-02-23T00:50:18;2.23;72.06
75164;HTU21D;63746;45.402;37.922;2024-02-23T00:52:44;2.20;71.95
75164;HTU21D;63746;45.402;37.922;2024-02-23T00:55:10;2.15;71.92
75164;HTU21D;63746;45.402;37.922;2024-02-23T00:57:38;2.10;71.79
75164;HTU21D;63746;45.402;37.922;2024-02-23T01:00:04;2.05;71.86
75164;HTU21D;63746;45.402;37.922;2024-02-23T01:02:31;2.02;72.01
75164;HTU21D;63746;45.402;37.922;2024-02-23T01:04:58;2.01;72.10
75164;HTU21D;63746;45.402;37.922;2024-02-23T01:07:24;1.99;72.11
75164;HTU21D;63746;45.402;37.922;2024-02-23T01:09:50;1.97;72.19
75164;HTU21D;63746;45.402;37.922;2024-02-23T01:12:17;1.96;72.28
75164;HTU21D;63746;45.402;37.922;2024-02-23T01:14:43;1.97;72.36
75164;HTU21D;63746;45.402;37.922;2024-02-23T01:17:08;1.97;72.38
75164;HTU21D;63746;45.402;37.922;2024-02-23T01:19:34;1.98;72.39
75164;HTU21D;63746;45.402;37.922;2024-02-23T01:22:00;1.99;72.44
75164;HTU21D;63746;45.402;37.922;2024-02-23T01:24:27;1.99;72.42
75164;HTU21D;63746;45.402;37.922;2024-02-23T01:26:55;1.97;72.40
75164;HTU21D;63746;45.402;37.922;2024-02-23T01:29:22;1.96;72.41
75164;HTU21D;63746;45.402;37.922;2024-02-23T01:31:48;1.95;72.37
75164;HTU21D;63746;45.402;37.922;2024-02-23T01:34:14;1.93;72.32
75164;HTU21D;63746;45.402;37.922;2024-02-23T01:36:40;1.91;72.34
75164;HTU21D;63746;45.402;37.922;2024-02-23T01:39:06;1.90;72.30
75164;HTU21D;63746;45.402;37.922;2024-02-23T01:41:33;1.84;72.26
75164;HTU21D;63746;45.402;37.922;2024-02-23T01:43:59;1.84;72.32
75164;HTU21D;63746;45.402;37.922;2024-02-23T01:46:25;1.80;72.25
75164;HTU21D;63746;45.402;37.922;2024-02-23T01:48:51;1.78;72.31
75164;HTU21D;63746;45.402;37.922;2024-02-23T01:51:18;1.77;72.35
75164;HTU21D;63746;45.402;37.922;2024-02-23T01:53:44;1.75;72.38
75164;HTU21D;63746;45.402;37.922;2024-02-23T01:56:12;1.73;72.41
75164;HTU21D;63746;45.402;37.922;2024-02-23T01:58:43;1.71;72.46
75164;HTU21D;63746;45.402;37.922;2024-02-23T02:01:12;1.73;72.56
75164;HTU21D;63746;45.402;37.922;2024-02-23T02:03:38;1.71;72.54
75164;HTU21D;63746;45.402;37.922;2024-02-23T02:06:09;1.70;72.46
75164;HTU21D;63746;45.402;37.922;2024-02-23T02:08:36;1.66;72.43
75164;HTU21D;63746;45.402;37.922;2024-02-23T02:11:03;1.66;72.48
75164;HTU21D;63746;45.402;37.922;2024-02-23T02:13:29;1.65;72.51
75164;HTU21D;63746;45.402;37.922;2024-02-23T02:15:58;1.63;72.48
75164;HTU21D;63746;45.402;37.922;2024-02-23T02:18:24;1.63;72.48
75164;HTU21D;63746;45.402;37.922;2024-02-23T02:20:57;1.63;72.56
75164;HTU21D;63746;45.402;37.922;2024-02-23T02:23:23;1.63;72.60
75164;HTU21D;63746;45.402;37.922;2024-02-23T02:25:57;1.62;72.58
75164;HTU21D;63746;45.402;37.922;2024-02-23T02:28:24;1.61;72.55
75164;HTU21D;63746;45.402;37.922;2024-02-23T02:30:51;1.61;72.58
75164;HTU21D;63746;45.402;37.922;2024-02-23T02:33:18;1.58;72.62
75164;HTU21D;63746;45.402;37.922;2024-02-23T02:35:44;1.61;72.69
75164;HTU21D;63746;45.402;37.922;2024-02-23T02:38:11;1.61;72.64
75164;HTU21D;63746;45.402;37.922;2024-02-23T02:40:37;1.60;72.70
75164;HTU21D;63746;45.402;37.922;2024-02-23T02:43:04;1.57;72.62
75164;HTU21D;63746;45.402;37.922;2024-02-23T02:45:30;1.55;72.60
75164;HTU21D;63746;45.402;37.922;2024-02-23T02:47:56;1.53;72.56
75164;HTU21D;63746;45.402;37.922;2024-02-23T02:50:22;1.49;72.49
75164;HTU21D;63746;45.402;37.922;2024-02-23T02:52:48;1.47;72.52
75164;HTU21D;63746;45.402;37.922;2024-02-23T02:55:14;1.47;72.62
75164;HTU21D;63746;45.402;37.922;2024-02-23T02:57:40;1.47;72.64
75164;HTU21D;63746;45.402;37.922;2024-02-23T03:00:10;1.45;72.63
75164;HTU21D;63746;45.402;37.922;2024-02-23T03:02:36;1.42;72.63
75164;HTU21D;63746;45.402;37.922;2024-02-23T03:05:02;1.38;72.67
75164;HTU21D;63746;45.402;37.922;2024-02-23T03:07:28;1.37;72.74
75164;HTU21D;63746;45.402;37.922;2024-02-23T03:09:54;1.37;72.87
75164;HTU21D;63746;45.402;37.922;2024-02-23T03:12:20;1.38;72.94
75164;HTU21D;63746;45.402;37.922;2024-02-23T03:14:46;1.41;73.06
75164;HTU21D;63746;45.402;37.922;2024-02-23T03:17:12;1.45;73.09
75164;HTU21D;63746;45.402;37.922;2024-02-23T03:19:38;1.48;73.07
75164;HTU21D;63746;45.402;37.922;2024-02-23T03:22:05;1.48;73.09
75164;HTU21D;63746;45.402;37.922;2024-02-23T03:24:31;1.51;73.03
75164;HTU21D;63746;45.402;37.922;2024-02-23T03:26:57;1.52;73.03
75164;HTU21D;63746;45.402;37.922;2024-02-23T03:29:23;1.52;73.04
75164;HTU21D;63746;45.402;37.922;2024-02-23T03:31:55;1.54;73.06
75164;HTU21D;63746;45.402;37.922;2024-02-23T03:34:21;1.56;73.12
75164;HTU21D;63746;45.402;37.922;2024-02-23T03:36:47;1.60;73.21
75164;HTU21D;63746;45.402;37.922;2024-02-23T03:39:13;1.64;73.19
75164;HTU21D;63746;45.402;37.922;2024-02-23T03:41:39;1.66;73.26
75164;HTU21D;63746;45.402;37.922;2024-02-23T03:44:05;1.70;73.28
75164;HTU21D;63746;45.402;37.922;2024-02-23T03:46:31;1.72;73.19
75164;HTU21D;63746;45.402;37.922;2024-02-23T03:48:57;1.77;73.25
75164;HTU21D;63746;45.402;37.922;2024-02-23T03:51:23;1.81;73.28
75164;HTU21D;63746;45.402;37.922;2024-02-23T03:53:49;1.82;73.23
75164;HTU21D;63746;45.402;37.922;2024-02-23T03:56:16;1.83;73.12
75164;HTU21D;63746;45.402;37.922;2024-02-23T03:58:42;1.82;73.01
75164;HTU21D;63746;45.402;37.922;2024-02-23T04:01:08;1.84;73.09
75164;HTU21D;63746;45.402;37.922;2024-02-23T04:03:34;1.83;72.93
75164;HTU21D;63746;45.402;37.922;2024-02-23T04:06:00;1.80;72.85
75164;HTU21D;63746;45.402;37.922;2024-02-23T04:08:26;1.78;72.85
75164;HTU21D;63746;45.402;37.922;2024-02-23T04:10:52;1.77;72.87
75164;HTU21D;63746;45.402;37.922;2024-02-23T04:13:18;1.76;72.94
75164;HTU21D;63746;45.402;37.922;2024-02-23T04:15:44;1.77;73.11
75164;HTU21D;63746;45.402;37.922;2024-02-23T04:18:10;1.80;73.09
75164;HTU21D;63746;45.402;37.922;2024-02-23T04:20:36;1.81;73.15
75164;HTU21D;63746;45.402;37.922;2024-02-23T04:23:02;1.82;73.13
75164;HTU21D;63746;45.402;37.922;2024-02-23T04:25:28;1.81;73.18
75164;HTU21D;63746;45.402;37.922;2024-02-23T04:27:54;1.82;73.11
75164;HTU21D;63746;45.402;37.922;2024-02-23T04:30:20;1.83;73.17
75164;HTU21D;63746;45.402;37.922;2024-02-23T04:32:45;1.86;73.26
75164;HTU21D;63746;45.402;37.922;2024-02-23T04:35:11;1.87;73.30
75164;HTU21D;63746;45.402;37.922;2024-02-23T04:37:37;1.87;73.20
75164;HTU21D;63746;45.402;37.922;2024-02-23T04:40:05;1.87;73.22
75164;HTU21D;63746;45.402;37.922;2024-02-23T04:42:31;1.88;73.22
75164;HTU21D;63746;45.402;37.922;2024-02-23T04:44:57;1.90;73.26
75164;HTU21D;63746;45.402;37.922;2024-02-23T04:47:23;1.93;73.36
75164;HTU21D;63746;45.402;37.922;2024-02-23T04:49:49;1.97;73.48
75164;HTU21D;63746;45.402;37.922;2024-02-23T04:52:15;2.01;73.51
75164;HTU21D;63746;45.402;37.922;2024-02-23T04:54:41;2.07;73.67
75164;HTU21D;63746;45.402;37.922;2024-02-23T04:57:07;2.12;73.73
75164;HTU21D;63746;45.402;37.922;2024-02-23T04:59:33;2.16;73.55
75164;HTU21D;63746;45.402;37.922;2024-02-23T05:01:59;2.21;73.56
75164;HTU21D;63746;45.402;37.922;2024-02-23T05:04:25;2.24;73.54
75164;HTU21D;63746;45.402;37.922;2024-02-23T05:06:52;2.30;73.64
75164;HTU21D;63746;45.402;37.922;2024-02-23T05:09:18;2.32;73.54
75164;HTU21D;63746;45.402;37.922;2024-02-23T05:11:45;2.34;73.38
75164;HTU21D;63746;45.402;37.922;2024-02-23T05:14:13;2.35;73.32
75164;HTU21D;63746;45.402;37.922;2024-02-23T05:16:39;2.35;73.32
75164;HTU21D;63746;45.402;37.922;2024-02-23T05:19:05;2.36;73.22
75164;HTU21D;63746;45.402;37.922;2024-02-23T05:21:31;2.38;73.24
75164;HTU21D;63746;45.402;37.922;2024-02-23T05:23:57;2.38;73.22
75164;HTU21D;63746;45.402;37.922;2024-02-23T05:26:23;2.39;73.15
75164;HTU21D;63746;45.402;37.922;2024-02-23T05:28:49;2.39;73.11
75164;HTU21D;63746;45.402;37.922;2024-02-23T05:31:15;2.38;73.14
75164;HTU21D;63746;45.402;37.922;2024-02-23T05:33:41;2.39;73.15
75164;HTU21D;63746;45.402;37.922;2024-02-23T05:36:07;2.39;73.12
75164;HTU21D;63746;45.402;37.922;2024-02-23T05:38:33;2.38;73.16
75164;HTU21D;63746;45.402;37.922;2024-02-23T05:40:59;2.38;73.16
75164;HTU21D;63746;45.402;37.922;2024-02-23T05:43:26;2.37;73.19
75164;HTU21D;63746;45.402;37.922;2024-02-23T05:45:52;2.38;73.23
75164;HTU21D;63746;45.402;37.922;2024-02-23T05:48:19;2.39;73.28
75164;HTU21D;63746;45.402;37.922;2024-02-23T05:50:45;2.38;73.24
75164;HTU21D;63746;45.402;37.922;2024-02-23T05:53:11;2.39;73.32
75164;HTU21D;63746;45.402;37.922;2024-02-23T05:55:37;2.39;73.35
75164;HTU21D;63746;45.402;37.922;2024-02-23T05:58:03;2.40;73.37
75164;HTU21D;63746;45.402;37.922;2024-02-23T06:00:30;2.41;73.38
75164;HTU21D;63746;45.402;37.922;2024-02-23T06:02:57;2.43;73.46
75164;HTU21D;63746;45.402;37.922;2024-02-23T06:05:23;2.45;73.46
75164;HTU21D;63746;45.402;37.922;2024-02-23T06:07:49;2.46;73.47
75164;HTU21D;63746;45.402;37.922;2024-02-23T06:10:15;2.47;73.51
75164;HTU21D;63746;45.402;37.922;2024-02-23T06:12:41;2.52;73.64
75164;HTU21D;63746;45.402;37.922;2024-02-23T06:15:07;2.55;73.66
75164;HTU21D;63746;45.402;37.922;2024-02-23T06:17:34;2.58;73.78
75164;HTU21D;63746;45.402;37.922;2024-02-23T06:20:00;2.62;73.73
75164;HTU21D;63746;45.402;37.922;2024-02-23T06:22:26;2.67;73.77
75164;HTU21D;63746;45.402;37.922;2024-02-23T06:24:52;2.70;73.77
75164;HTU21D;63746;45.402;37.922;2024-02-23T06:27:18;2.73;73.83
75164;HTU21D;63746;45.402;37.922;2024-02-23T06:29:44;2.76;73.86
75164;HTU21D;63746;45.402;37.922;2024-02-23T06:32:10;2.82;73.93
75164;HTU21D;63746;45.402;37.922;2024-02-23T06:34:36;2.86;73.96
75164;HTU21D;63746;45.402;37.922;2024-02-23T06:37:02;2.91;73.90
75164;HTU21D;63746;45.402;37.922;2024-02-23T06:39:29;2.97;73.94
75164;HTU21D;63746;45.402;37.922;2024-02-23T06:41:54;3.01;73.96
75164;HTU21D;63746;45.402;37.922;2024-02-23T06:44:20;3.05;74.01
75164;HTU21D;63746;45.402;37.922;2024-02-23T06:46:46;3.11;73.91
75164;HTU21D;63746;45.402;37.922;2024-02-23T06:49:12;3.16;74.02
75164;HTU21D;63746;45.402;37.922;2024-02-23T06:51:38;3.20;73.99
75164;HTU21D;63746;45.402;37.922;2024-02-23T06:54:06;3.27;74.02
75164;HTU21D;63746;45.402;37.922;2024-02-23T06:56:33;3.32;74.04
75164;HTU21D;63746;45.402;37.922;2024-02-23T06:59:00;3.39;74.00
75164;HTU21D;63746;45.402;37.922;2024-02-23T07:01:26;3.47;74.19
75164;HTU21D;63746;45.402;37.922;2024-02-23T07:03:53;3.56;74.23
75164;HTU21D;63746;45.402;37.922;2024-02-23T07:06:19;3.64;74.28
75164;HTU21D;63746;45.402;37.922;2024-02-23T07:08:45;3.72;74.15
75164;HTU21D;63746;45.402;37.922;2024-02-23T07:11:11;3.82;74.25
75164;HTU21D;63746;45.402;37.922;2024-02-23T07:13:37;3.94;74.36
75164;HTU21D;63746;45.402;37.922;2024-02-23T07:16:03;4.08;74.64
75164;HTU21D;63746;45.402;37.922;2024-02-23T07:18:29;4.28;74.83
75164;HTU21D;63746;45.402;37.922;2024-02-23T07:20:55;4.46;74.96
75164;HTU21D;63746;45.402;37.922;2024-02-23T07:23:21;4.63;74.83
75164;HTU21D;63746;45.402;37.922;2024-02-23T07:25:48;4.74;74.53
75164;HTU21D;63746;45.402;37.922;2024-02-23T07:28:16;4.89;74.48
75164;HTU21D;63746;45.402;37.922;2024-02-23T07:30:45;5.04;74.49
75164;HTU21D;63746;45.402;37.922;2024-02-23T07:33:12;5.19;74.50
75164;HTU21D;63746;45.402;37.922;2024-02-23T07:35:38;5.35;74.53
75164;HTU21D;63746;45.402;37.922;2024-02-23T07:38:04;5.45;74.03
75164;HTU21D;63746;45.402;37.922;2024-02-23T07:40:30;5.52;73.86
75164;HTU21D;63746;45.402;37.922;2024-02-23T07:42:57;5.69;74.10
75164;HTU21D;63746;45.402;37.922;2024-02-23T07:45:23;5.83;73.95
75164;HTU21D;63746;45.402;37.922;2024-02-23T07:47:49;5.99;74.08
75164;HTU21D;63746;45.402;37.922;2024-02-23T07:50:15;6.15;73.99
75164;HTU21D;63746;45.402;37.922;2024-02-23T07:52:44;6.33;73.88
75164;HTU21D;63746;45.402;37.922;2024-02-23T07:55:10;6.48;73.81
75164;HTU21D;63746;45.402;37.922;2024-02-23T07:57:36;6.63;73.74
75164;HTU21D;63746;45.402;37.922;2024-02-23T08:00:04;6.78;73.65
75164;HTU21D;63746;45.402;37.922;2024-02-23T08:02:38;6.96;73.63
75164;HTU21D;63746;45.402;37.922;2024-02-23T08:05:04;7.12;73.50
75164;HTU21D;63746;45.402;37.922;2024-02-23T08:07:30;7.27;73.38
75164;HTU21D;63746;45.402;37.922;2024-02-23T08:09:56;7.43;73.24
75164;HTU21D;63746;45.402;37.922;2024-02-23T08:12:23;7.58;73.09
75164;HTU21D;63746;45.402;37.922;2024-02-23T08:14:49;7.69;72.87
75164;HTU21D;63746;45.402;37.922;2024-02-23T08:17:19;7.81;72.77
75164;HTU21D;63746;45.402;37.922;2024-02-23T08:19:46;7.91;72.61
75164;HTU21D;63746;45.402;37.922;2024-02-23T08:22:12;8.05;72.69
75164;HTU21D;63746;45.402;37.922;2024-02-23T08:24:38;8.19;72.56
75164;HTU21D;63746;45.402;37.922;2024-02-23T08:27:04;8.32;72.38
75164;HTU21D;63746;45.402;37.922;2024-02-23T08:29:31;8.39;72.15
75164;HTU21D;63746;45.402;37.922;2024-02-23T08:31:57;8.48;72.13
75164;HTU21D;63746;45.402;37.922;2024-02-23T08:34:23;8.61;72.01
75164;HTU21D;63746;45.402;37.922;2024-02-23T08:36:50;8.67;71.68
75164;HTU21D;63746;45.402;37.922;2024-02-23T08:39:17;8.73;71.65
75164;HTU21D;63746;45.402;37.922;2024-02-23T08:41:43;8.80;71.64
75164;HTU21D;63746;45.402;37.922;2024-02-23T08:44:08;8.89;71.68
75164;HTU21D;63746;45.402;37.922;2024-02-23T08:46:34;8.94;71.51
75164;HTU21D;63746;45.402;37.922;2024-02-23T08:49:01;9.01;71.54
75164;HTU21D;63746;45.402;37.922;2024-02-23T08:51:27;9.12;71.61
75164;HTU21D;63746;45.402;37.922;2024-02-23T08:53:53;9.21;71.55
75164;HTU21D;63746;45.402;37.922;2024-02-23T08:56:19;9.33;71.58
75164;HTU21D;63746;45.402;37.922;2024-02-23T08:58:45;9.46;71.64
75164;HTU21D;63746;45.402;37.922;2024-02-23T09:01:11;9.57;71.57
75164;HTU21D;63746;45.402;37.922;2024-02-23T09:03:37;9.69;71.55
75164;HTU21D;63746;45.402;37.922;2024-02-23T09:06:03;9.82;71.40
75164;HTU21D;63746;45.402;37.922;2024-02-23T09:08:29;9.90;71.30
75164;HTU21D;63746;45.402;37.922;2024-02-23T09:10:55;9.99;71.25
75164;HTU21D;63746;45.402;37.922;2024-02-23T09:13:21;10.09;71.13
75164;HTU21D;63746;45.402;37.922;2024-02-23T09:15:47;10.20;71.06
75164;HTU21D;63746;45.402;37.922;2024-02-23T09:18:13;10.28;71.05
75164;HTU21D;63746;45.402;37.922;2024-02-23T09:20:40;10.40;70.93
75164;HTU21D;63746;45.402;37.922;2024-02-23T09:23:06;10.43;70.66
75164;HTU21D;63746;45.402;37.922;2024-02-23T09:25:32;10.51;70.84
75164;HTU21D;63746;45.402;37.922;2024-02-23T09:27:58;10.63;70.96
75164;HTU21D;63746;45.402;37.922;2024-02-23T09:30:24;10.74;70.84
75164;HTU21D;63746;45.402;37.922;2024-02-23T09:32:50;10.81;70.60
75164;HTU21D;63746;45.402;37.922;2024-02-23T09:35:16;10.87;70.52
75164;HTU21D;63746;45.402;37.922;2024-02-23T09:37:42;10.99;70.76
75164;HTU21D;63746;45.402;37.922;2024-02-23T09:40:08;11.12;70.76
75164;HTU21D;63746;45.402;37.922;2024-02-23T09:42:35;11.27;70.81
75164;HTU21D;63746;45.402;37.922;2024-02-23T09:45:01;11.38;70.48
75164;HTU21D;63746;45.402;37.922;2024-02-23T09:47:27;11.43;70.32
75164;HTU21D;63746;45.402;37.922;2024-02-23T09:49:56;11.54;70.32
75164;HTU21D;63746;45.402;37.922;2024-02-23T09:52:23;11.60;70.16
75164;HTU21D;63746;45.402;37.922;2024-02-23T09:54:49;11.69;70.24
75164;HTU21D;63746;45.402;37.922;2024-02-23T09:57:16;11.76;70.23
75164;HTU21D;63746;45.402;37.922;2024-02-23T09:59:44;11.86;70.19
75164;HTU21D;63746;45.402;37.922;2024-02-23T10:02:15;11.92;70.12
75164;HTU21D;63746;45.402;37.922;2024-02-23T10:04:42;12.00;69.96
75164;HTU21D;63746;45.402;37.922;2024-02-23T10:07:15;12.04;69.82
75164;HTU21D;63746;45.402;37.922;2024-02-23T10:09:43;12.08;69.79
75164;HTU21D;63746;45.402;37.922;2024-02-23T10:12:09;12.14;69.89
75164;HTU21D;63746;45.402;37.922;2024-02-23T10:14:35;12.19;69.93
75164;HTU21D;63746;45.402;37.922;2024-02-23T10:17:01;12.28;69.94
75164;HTU21D;63746;45.402;37.922;2024-02-23T10:19:28;12.36;69.78
75164;HTU21D;63746;45.402;37.922;2024-02-23T10:21:56;12.38;69.74
75164;HTU21D;63746;45.402;37.922;2024-02-23T10:24:23;12.44;69.89
75164;HTU21D;63746;45.402;37.922;2024-02-23T10:26:51;12.53;69.81
75164;HTU21D;63746;45.402;37.922;2024-02-23T10:29:18;12.57;69.67
75164;HTU21D;63746;45.402;37.922;2024-02-23T10:31:46;12.61;69.61
75164;HTU21D;63746;45.402;37.922;2024-02-23T10:34:19;12.65;69.65
75164;HTU21D;63746;45.402;37.922;2024-02-23T10:36:45;12.71;69.75
75164;HTU21D;63746;45.402;37.922;2024-02-23T10:39:17;12.77;69.73
75164;HTU21D;63746;45.402;37.922;2024-02-23T10:41:50;12.88;69.68
75164;HTU21D;63746;45.402;37.922;2024-02-23T10:44:19;12.93;69.55
75164;HTU21D;63746;45.402;37.922;2024-02-23T10:46:45;12.94;69.39
75164;HTU21D;63746;45.402;37.922;2024-02-23T10:49:15;12.96;69.45
75164;HTU21D;63746;45.402;37.922;2024-02-23T10:51:43;13.01;69.49
75164;HTU21D;63746;45.402;37.922;2024-02-23T10:54:10;13.06;69.58
75164;HTU21D;63746;45.402;37.922;2024-02-23T10:56:36;13.12;69.51
75164;HTU21D;63746;45.402;37.922;2024-02-23T10:59:03;13.16;69.46
75164;HTU21D;63746;45.402;37.922;2024-02-23T11:01:31;13.21;69.39
75164;HTU21D;63746;45.402;37.922;2024-02-23T11:03:59;13.22;69.14
75164;HTU21D;63746;45.402;37.922;2024-02-23T11:06:28;13.24;69.38
75164;HTU21D;63746;45.402;37.922;2024-02-23T11:09:04;13.30;69.36
75164;HTU21D;63746;45.402;37.922;2024-02-23T11:11:32;13.32;69.23
75164;HTU21D;63746;45.402;37.922;2024-02-23T11:13:58;13.29;69.00
75164;HTU21D;63746;45.402;37.922;2024-02-23T11:16:31;13.22;69.17
75164;HTU21D;63746;45.402;37.922;2024-02-23T11:19:05;13.18;69.09
75164;HTU21D;63746;45.402;37.922;2024-02-23T11:21:37;13.14;69.07
75164;HTU21D;63746;45.402;37.922;2024-02-23T11:24:04;13.05;69.02
75164;HTU21D;63746;45.402;37.922;2024-02-23T11:26:31;13.03;69.20
75164;HTU21D;63746;45.402;37.922;2024-02-23T11:29:10;13.03;69.22
75164;HTU21D;63746;45.402;37.922;2024-02-23T11:31:44;13.05;69.43
75164;HTU21D;63746;45.402;37.922;2024-02-23T11:34:12;13.09;69.57
75164;HTU21D;63746;45.402;37.922;2024-02-23T11:36:39;13.18;69.56
75164;HTU21D;63746;45.402;37.922;2024-02-23T11:39:05;13.21;69.43
75164;HTU21D;63746;45.402;37.922;2024-02-23T11:41:31;13.24;69.37
75164;HTU21D;63746;45.402;37.922;2024-02-23T11:43:57;13.21;69.23
75164;HTU21D;63746;45.402;37.922;2024-02-23T11:46:26;13.16;69.14
75164;HTU21D;63746;45.402;37.922;2024-02-23T11:48:52;13.10;69.10
75164;HTU21D;63746;45.402;37.922;2024-02-23T11:51:22;13.03;69.00
75164;HTU21D;63746;45.402;37.922;2024-02-23T11:53:50;12.94;69.00
75164;HTU21D;63746;45.402;37.922;2024-02-23T11:56:16;12.90;69.16
75164;HTU21D;63746;45.402;37.922;2024-02-23T11:58:44;12.85;69.12
75164;HTU21D;63746;45.402;37.922;2024-02-23T12:01:10;12.78;69.07
75164;HTU21D;63746;45.402;37.922;2024-02-23T12:03:36;12.70;69.12
75164;HTU21D;63746;45.402;37.922;2024-02-23T12:06:03;12.64;69.13
75164;HTU21D;63746;45.402;37.922;2024-02-23T12:08:30;12.58;69.26
75164;HTU21D;63746;45.402;37.922;2024-02-23T12:11:04;12.53;69.33
75164;HTU21D;63746;45.402;37.922;2024-02-23T12:13:31;12.48;69.29
75164;HTU21D;63746;45.402;37.922;2024-02-23T12:15:58;12.43;69.36
75164;HTU21D;63746;45.402;37.922;2024-02-23T12:18:24;12.41;69.41
75164;HTU21D;63746;45.402;37.922;2024-02-23T12:20:52;12.40;69.42
75164;HTU21D;63746;45.402;37.922;2024-02-23T12:23:18;12.37;69.49
75164;HTU21D;63746;45.402;37.922;2024-02-23T12:25:56;12.41;69.51
75164;HTU21D;63746;45.402;37.922;2024-02-23T12:28:23;12.41;69.33
75164;HTU21D;63746;45.402;37.922;2024-02-23T12:31:23;12.40;69.11
75164;HTU21D;63746;45.402;37.922;2024-02-23T12:33:50;12.41;69.44
75164;HTU21D;63746;45.402;37.922;2024-02-23T12:36:16;12.42;69.52
75164;HTU21D;63746;45.402;37.922;2024-02-23T12:38:43;12.42;69.43
75164;HTU21D;63746;45.402;37.922;2024-02-23T12:41:10;12.42;69.40
75164;HTU21D;63746;45.402;37.922;2024-02-23T12:43:37;12.41;69.25
75164;HTU21D;63746;45.402;37.922;2024-02-23T12:46:03;12.36;69.21
75164;HTU21D;63746;45.402;37.922;2024-02-23T12:48:29;12.34;69.23
75164;HTU21D;63746;45.402;37.922;2024-02-23T12:50:55;12.32;69.20
75164;HTU21D;63746;45.402;37.922;2024-02-23T12:53:38;12.27;69.04
75164;HTU21D;63746;45.402;37.922;2024-02-23T12:56:06;12.26;69.29
75164;HTU21D;63746;45.402;37.922;2024-02-23T12:58:34;12.22;69.29
75164;HTU21D;63746;45.402;37.922;2024-02-23T13:01:00;12.21;69.29
75164;HTU21D;63746;45.402;37.922;2024-02-23T13:03:27;12.20;69.23
75164;HTU21D;63746;45.402;37.922;2024-02-23T13:05:57;12.18;69.38
75164;HTU21D;63746;45.402;37.922;2024-02-23T13:08:23;12.18;69.49
75164;HTU21D;63746;45.402;37.922;2024-02-23T13:10:50;12.19;69.55
75164;HTU21D;63746;45.402;37.922;2024-02-23T13:13:17;12.19;69.52
75164;HTU21D;63746;45.402;37.922;2024-02-23T13:15:46;12.19;69.58
75164;HTU21D;63746;45.402;37.922;2024-02-23T13:18:12;12.19;69.45
75164;HTU21D;63746;45.402;37.922;2024-02-23T13:20:39;12.20;69.20
75164;HTU21D;63746;45.402;37.922;2024-02-23T13:23:08;12.18;69.37
75164;HTU21D;63746;45.402;37.922;2024-02-23T13:25:40;12.17;69.22
75164;HTU21D;63746;45.402;37.922;2024-02-23T13:28:07;12.15;69.36
75164;HTU21D;63746;45.402;37.922;2024-02-23T13:30:34;12.14;69.27
75164;HTU21D;63746;45.402;37.922;2024-02-23T13:33:01;12.12;69.37
75164;HTU21D;63746;45.402;37.922;2024-02-23T13:35:27;12.13;69.37
75164;HTU21D;63746;45.402;37.922;2024-02-23T13:37:53;12.12;69.33
75164;HTU21D;63746;45.402;37.922;2024-02-23T13:40:19;12.08;69.29
75164;HTU21D;63746;45.402;37.922;2024-02-23T13:42:46;12.06;69.27
75164;HTU21D;63746;45.402;37.922;2024-02-23T13:45:15;12.05;69.45
75164;HTU21D;63746;45.402;37.922;2024-02-23T13:47:42;12.11;69.70
75164;HTU21D;63746;45.402;37.922;2024-02-23T13:50:10;12.18;69.70
75164;HTU21D;63746;45.402;37.922;2024-02-23T13:52:37;12.23;69.83
75164;HTU21D;63746;45.402;37.922;2024-02-23T13:55:03;12.32;69.76
75164;HTU21D;63746;45.402;37.922;2024-02-23T13:57:29;12.36;69.55
75164;HTU21D;63746;45.402;37.922;2024-02-23T13:59:55;12.35;69.24
75164;HTU21D;63746;45.402;37.922;2024-02-23T14:02:25;12.31;69.31
75164;HTU21D;63746;45.402;37.922;2024-02-23T14:04:55;12.33;69.38
75164;HTU21D;63746;45.402;37.922;2024-02-23T14:07:22;12.28;69.28
75164;HTU21D;63746;45.402;37.922;2024-02-23T14:09:48;12.28;69.42
75164;HTU21D;63746;45.402;37.922;2024-02-23T14:12:14;12.32;69.47
75164;HTU21D;63746;45.402;37.922;2024-02-23T14:14:40;12.35;69.60
75164;HTU21D;63746;45.402;37.922;2024-02-23T14:17:06;12.40;69.78
75164;HTU21D;63746;45.402;37.922;2024-02-23T14:19:32;12.43;69.46
75164;HTU21D;63746;45.402;37.922;2024-02-23T14:21:58;12.40;69.28
75164;HTU21D;63746;45.402;37.922;2024-02-23T14:24:24;12.34;69.10
75164;HTU21D;63746;45.402;37.922;2024-02-23T14:26:50;12.26;68.97
75164;HTU21D;63746;45.402;37.922;2024-02-23T14:29:16;12.15;68.95
75164;HTU21D;63746;45.402;37.922;2024-02-23T14:31:43;12.07;68.95
75164;HTU21D;63746;45.402;37.922;2024-02-23T14:34:09;11.97;68.95
75164;HTU21D;63746;45.402;37.922;2024-02-23T14:36:35;11.87;69.06
75164;HTU21D;63746;45.402;37.922;2024-02-23T14:39:01;11.82;69.19
75164;HTU21D;63746;45.402;37.922;2024-02-23T14:41:30;11.77;69.28
75164;HTU21D;63746;45.402;37.922;2024-02-23T14:43:56;11.72;69.36
75164;HTU21D;63746;45.402;37.922;2024-02-23T14:46:22;11.67;69.49
75164;HTU21D;63746;45.402;37.922;2024-02-23T14:48:48;11.64;69.57
75164;HTU21D;63746;45.402;37.922;2024-02-23T14:51:17;11.60;69.61
75164;HTU21D;63746;45.402;37.922;2024-02-23T14:56:30;11.52;69.57
75164;HTU21D;63746;45.402;37.922;2024-02-23T15:02:07;11.54;70.01
75164;HTU21D;63746;45.402;37.922;2024-02-23T15:04:35;11.56;70.02
75164;HTU21D;63746;45.402;37.922;2024-02-23T15:07:01;11.55;69.82
75164;HTU21D;63746;45.402;37.922;2024-02-23T15:09:27;11.51;69.69
75164;HTU21D;63746;45.402;37.922;2024-02-23T15:11:53;11.45;69.48
75164;HTU21D;63746;45.402;37.922;2024-02-23T15:14:19;11.47;69.98